Time;durP1;ratioP1;P1;durP2;ratioP2;P2;SDS_P1;SDS_P2;PMS_P1;PMS_P2;Temp;Humidity;BMP_temperature;BMP_pressure;BME280_temperature;BME280_humidity;BME280_pressure;Samples;Min_cycle;Max_cycle;Signal;HPM_P1;HPM_P2
2022/01/03 00:00:51;;;;;;;2.35;0.50;;;;;;;7.44;100.00;96238.25;5041350;28;20155;-70
2022/01/03 00:03:19;;;;;;;9.18;0.95;;;;;;;7.44;100.00;96219.63;5041426;28;20426;-70
2022/01/03 00:05:44;;;;;;;7.13;0.85;;;;;;;7.44;100.00;96238.25;5040231;28;20025;-70
2022/01/03 00:08:10;;;;;;;9.50;1.08;;;;;;;7.41;100.00;96228.91;5040706;28;20111;-74
2022/01/03 00:10:36;;;;;;;2.75;0.70;;;;;;;7.24;100.00;96226.16;5041313;28;20071;-71
2022/01/03 00:13:06;;;;;;;6.22;1.40;;;;;;;7.19;100.00;96239.34;4749968;28;10000561;-72
2022/01/03 00:15:32;;;;;;;3.53;0.82;;;;;;;7.18;100.00;96276.81;693485;28;10002011;-71
2022/01/03 00:17:58;;;;;;;7.40;1.27;;;;;;;7.23;100.00;96234.34;5042227;28;20055;-71
2022/01/03 00:20:25;;;;;;;1.98;1.05;;;;;;;7.28;100.00;96244.31;5045645;28;20041;-71
2022/01/03 00:23:02;;;;;;;7.88;1.50;;;;;;;7.31;100.00;96239.31;5045155;28;20075;-71
2022/01/03 00:25:29;;;;;;;11.48;2.92;;;;;;;7.30;100.00;96266.97;5045642;28;20029;-71
2022/01/03 00:28:19;;;;;;;13.68;1.75;;;;;;;7.24;100.00;96247.44;5046509;28;20419;-71
2022/01/03 00:30:44;;;;;;;13.23;1.80;;;;;;;6.96;100.00;96255.28;5045916;28;20167;-70
2022/01/03 00:33:11;;;;;;;3.50;0.82;;;;;;;6.86;100.00;96255.06;5026631;28;20476;-71
2022/01/03 00:35:38;;;;;;;10.27;0.82;;;;;;;6.90;100.00;96259.69;5045506;28;20435;-71
2022/01/03 00:38:09;;;;;;;8.60;1.00;;;;;;;7.04;100.00;96275.44;5028183;28;20380;-72
2022/01/03 00:40:36;;;;;;;5.40;1.63;;;;;;;7.08;100.00;96260.59;5046853;28;20033;-70
2022/01/03 00:43:03;;;;;;;8.35;1.25;;;;;;;7.12;100.00;96280.41;5046480;28;20037;-71
2022/01/03 00:45:31;;;;;;;7.32;1.73;;;;;;;7.12;100.00;96283.88;5045671;28;20468;-73
2022/01/03 00:47:56;;;;;;;13.95;1.27;;;;;;;7.16;100.00;96286.88;5044672;28;20039;-71
2022/01/03 00:50:23;;;;;;;7.32;1.20;;;;;;;7.14;100.00;96279.13;5045057;28;20438;-71
2022/01/03 00:52:50;;;;;;;5.70;1.23;;;;;;;7.14;100.00;96294.28;5045250;28;20411;-71
2022/01/03 00:55:16;;;;;;;4.88;2.25;;;;;;;7.12;100.00;96286.53;5044027;28;20040;-71
2022/01/03 00:57:47;;;;;;;8.98;1.77;;;;;;;7.09;100.00;96286.19;5026997;28;20103;-72
2022/01/03 01:00:14;;;;;;;9.50;1.63;;;;;;;7.05;100.00;96285.03;5044115;28;20049;-72
2022/01/03 01:03:09;;;;;;;16.73;1.38;;;;;;;7.01;100.00;96289.19;5027253;28;20118;-71
2022/01/03 01:05:38;;;;;;;9.80;0.85;;;;;;;6.99;100.00;96286.75;5042962;28;20036;-72
2022/01/03 01:08:03;;;;;;;19.10;1.35;;;;;;;6.97;100.00;96286.16;5044144;28;20104;-71
2022/01/03 01:10:36;;;;;;;23.10;1.55;;;;;;;6.98;100.00;96298.44;5044439;28;20079;-72
2022/01/03 01:13:04;;;;;;;14.68;1.20;;;;;;;6.92;100.00;96309.97;5045484;28;20060;-71
2022/01/03 01:15:30;;;;;;;3.42;0.88;;;;;;;6.95;100.00;96297.03;5044948;28;20029;-71
2022/01/03 01:17:57;;;;;;;9.98;1.50;;;;;;;6.91;100.00;96297.72;5042707;28;20049;-72
2022/01/03 01:20:24;;;;;;;8.05;1.30;;;;;;;6.93;100.00;96301.78;5046210;28;20059;-73
2022/01/03 01:22:52;;;;;;;8.35;1.02;;;;;;;6.93;100.00;96309.78;5029246;28;20029;-72
2022/01/03 01:27:50;;;;;;;10.82;1.27;;;;;;;6.79;100.00;96324.31;5041378;28;20041;-72
2022/01/03 01:30:24;;;;;;;10.18;1.58;;;;;;;6.75;100.00;96324.97;5027950;28;20076;-73
2022/01/03 01:33:01;;;;;;;8.50;1.42;;;;;;;6.72;100.00;96314.81;5045902;28;20044;-72
2022/01/03 01:35:53;;;;;;;14.05;1.88;;;;;;;6.72;100.00;96317.47;5021914;28;20312;-71
2022/01/03 01:38:24;;;;;;;17.58;2.13;;;;;;;6.74;100.00;96313.53;5026953;28;20630;-71
2022/01/03 01:40:57;;;;;;;9.63;1.95;;;;;;;6.75;100.00;96323.13;5044291;28;20045;-71
2022/01/03 01:43:44;;;;;;;9.88;1.65;;;;;;;6.73;100.00;96319.91;5043686;28;20076;-72
2022/01/03 01:46:17;;;;;;;10.85;1.90;;;;;;;6.72;100.00;96328.91;5018708;28;20044;-71
2022/01/03 01:48:48;;;;;;;11.93;1.23;;;;;;;6.71;100.00;96319.31;5042281;28;20033;-71
2022/01/03 01:51:18;;;;;;;4.60;1.02;;;;;;;6.64;100.00;96324.72;5025433;28;20045;-72
2022/01/03 01:53:55;;;;;;;42.73;3.10;;;;;;;6.58;100.00;96317.66;5043126;28;20044;-71
2022/01/03 01:56:43;;;;;;;9.45;1.65;;;;;;;6.55;100.00;96312.81;5041613;28;20289;-73
2022/01/03 01:59:32;;;;;;;11.60;1.00;;;;;;;6.56;100.00;96318.94;5043004;28;20112;-72
2022/01/03 02:02:11;;;;;;;7.38;1.00;;;;;;;6.54;100.00;96310.38;5006879;28;20083;-71
2022/01/03 02:04:48;;;;;;;10.13;1.60;;;;;;;6.55;100.00;96325.28;5041854;28;20025;-72
2022/01/03 02:07:51;;;;;;;15.63;1.95;;;;;;;6.55;100.00;96307.47;5041286;28;20128;-71
2022/01/03 02:10:17;;;;;;;6.80;1.40;;;;;;;6.55;100.00;96323.44;5032106;28;20519;-71
2022/01/03 02:12:48;;;;;;;8.23;1.00;;;;;;;6.54;100.00;96323.66;5026674;28;20028;-71
2022/01/03 02:15:19;;;;;;;14.32;1.50;;;;;;;6.50;100.00;96325.13;5026468;28;20258;-71
2022/01/03 02:17:48;;;;;;;18.20;2.03;;;;;;;6.41;100.00;96324.66;5025262;28;20041;-71
2022/01/03 02:20:29;;;;;;;8.27;1.17;;;;;;;6.37;100.00;96328.78;5042215;28;20029;-71
2022/01/03 02:23:02;;;;;;;13.40;1.30;;;;;;;6.37;100.00;96326.94;5041156;28;20049;-73
2022/01/03 02:25:31;;;;;;;9.20;1.00;;;;;;;6.37;100.00;96326.13;5024949;28;20119;-73
2022/01/03 02:27:59;;;;;;;6.15;0.90;;;;;;;6.33;100.00;96323.13;5042741;28;20424;-72
2022/01/03 02:30:29;;;;;;;14.68;1.30;;;;;;;6.35;100.00;96329.00;5042055;28;20033;-71
2022/01/03 02:32:55;;;;;;;7.43;1.25;;;;;;;6.31;100.00;96317.22;5035891;28;20037;-71
2022/01/03 02:35:21;;;;;;;16.27;1.02;;;;;;;6.28;100.00;96316.84;5027930;28;20041;-70
2022/01/03 02:37:48;;;;;;;5.63;0.88;;;;;;;6.27;100.00;96313.38;5025993;28;20036;-70
2022/01/03 02:40:18;;;;;;;7.15;1.02;;;;;;;6.30;100.00;96320.06;5025606;28;20049;-71
2022/01/03 02:42:44;;;;;;;5.95;1.17;;;;;;;6.30;100.00;96325.38;5027093;28;20040;-71
2022/01/03 02:45:22;;;;;;;17.40;1.42;;;;;;;6.36;100.00;96325.31;5027501;28;20094;-71
2022/01/03 02:47:52;;;;;;;14.88;1.48;;;;;;;6.39;100.00;96324.88;5041485;28;20045;-71
2022/01/03 02:50:19;;;;;;;12.32;0.90;;;;;;;6.39;100.00;96330.19;5042776;28;20463;-71
2022/01/03 02:52:45;;;;;;;12.55;1.48;;;;;;;6.41;100.00;96332.63;5043269;28;20037;-71
2022/01/03 02:55:13;;;;;;;10.73;1.25;;;;;;;6.35;100.00;96323.69;5040821;28;20063;-71
2022/01/03 02:57:41;;;;;;;15.20;1.65;;;;;;;6.37;100.00;96320.81;5042831;28;20036;-71
2022/01/03 03:00:10;;;;;;;9.98;1.63;;;;;;;6.35;100.00;96315.72;5044459;28;20033;-71
2022/01/03 03:02:36;;;;;;;6.25;1.30;;;;;;;6.35;100.00;96329.00;5024842;28;20052;-71
2022/01/03 03:05:05;;;;;;;16.20;1.42;;;;;;;6.33;100.00;96324.97;5043175;28;20613;-72
2022/01/03 03:07:32;;;;;;;11.48;1.23;;;;;;;6.33;100.00;96325.78;5034346;28;20037;-70
2022/01/03 03:09:59;;;;;;;7.32;0.75;;;;;;;6.33;100.00;96330.28;5024530;28;20044;-72
2022/01/03 03:12:26;;;;;;;15.52;1.55;;;;;;;6.35;100.00;96326.34;5025736;28;20369;-71
2022/01/03 03:14:53;;;;;;;14.77;1.92;;;;;;;6.37;100.00;96320.81;5040894;28;20386;-73
2022/01/03 03:17:19;;;;;;;15.25;1.17;;;;;;;6.37;100.00;96331.44;5042750;28;20159;-72
2022/01/03 03:19:57;;;;;;;8.82;1.08;;;;;;;6.36;100.00;96333.28;5042753;28;20029;-70
2022/01/03 03:22:24;;;;;;;10.07;1.20;;;;;;;6.36;100.00;96330.63;5043233;28;20071;-71
2022/01/03 03:24:50;;;;;;;13.77;1.98;;;;;;;6.36;100.00;96335.94;5041950;28;20132;-72
2022/01/03 03:27:17;;;;;;;19.98;2.08;;;;;;;6.35;100.00;96326.34;5040981;28;20076;-71
2022/01/03 03:29:45;;;;;;;8.30;1.33;;;;;;;6.38;100.00;96336.53;5026207;28;20061;-71
2022/01/03 03:32:11;;;;;;;9.23;1.40;;;;;;;6.38;100.00;96333.06;5041514;28;20057;-71
2022/01/03 03:34:36;;;;;;;15.10;1.45;;;;;;;6.39;100.00;96324.88;5045397;28;20032;-71
2022/01/03 03:37:02;;;;;;;17.85;1.88;;;;;;;6.40;100.00;96337.13;5023992;28;20108;-70
2022/01/03 03:39:30;;;;;;;19.50;2.67;;;;;;;6.42;100.00;96328.91;5025514;28;20162;-70
2022/01/03 03:41:55;;;;;;;13.60;1.27;;;;;;;6.39;100.00;96324.88;5041256;28;20044;-71
2022/01/03 03:44:21;;;;;;;11.25;1.20;;;;;;;6.36;100.00;96327.97;5024834;28;20052;-71
2022/01/03 03:46:46;;;;;;;12.30;1.40;;;;;;;6.30;100.00;96336.84;5025896;28;20055;-70
2022/01/03 03:49:12;;;;;;;11.90;1.38;;;;;;;6.20;100.00;96347.19;5040570;28;20098;-71
2022/01/03 03:51:38;;;;;;;8.10;1.80;;;;;;;6.18;100.00;96343.13;5024971;28;20045;-70
2022/01/03 03:54:04;;;;;;;7.43;1.42;;;;;;;6.17;100.00;96337.03;5034976;28;20052;-72
2022/01/03 03:56:30;;;;;;;10.10;2.13;;;;;;;6.20;100.00;96333.09;5028328;28;20364;-70
2022/01/03 03:58:56;;;;;;;11.32;1.48;;;;;;;6.22;100.00;96336.31;5029304;28;20162;-71
2022/01/03 04:01:21;;;;;;;9.02;1.08;;;;;;;6.19;100.00;96340.25;5028773;28;20067;-71
2022/01/03 04:03:51;;;;;;;10.60;1.13;;;;;;;6.13;100.00;96335.81;5047609;28;20049;-71
2022/01/03 04:06:18;;;;;;;8.63;1.38;;;;;;;6.02;100.00;96337.41;5027784;28;20087;-70
2022/01/03 04:08:46;;;;;;;15.73;1.20;;;;;;;5.95;100.00;96343.81;5028934;28;20045;-70
2022/01/03 04:11:15;;;;;;;15.25;1.60;;;;;;;5.96;100.00;96337.47;5044841;28;20507;-71
2022/01/03 04:13:41;;;;;;;10.13;1.55;;;;;;;5.97;100.00;96345.22;5045797;28;20095;-71
2022/01/03 04:16:08;;;;;;;16.73;1.50;;;;;;;6.03;100.00;96336.34;5045555;28;20404;-71
2022/01/03 04:18:33;;;;;;;9.18;1.33;;;;;;;6.05;100.00;96342.25;5029212;28;20048;-71
2022/01/03 04:21:00;;;;;;;10.85;1.20;;;;;;;6.11;100.00;96338.72;5038248;28;20037;-72
2022/01/03 04:23:26;;;;;;;10.02;1.20;;;;;;;6.17;100.00;96338.88;5034009;28;20039;-71
2022/01/03 04:25:51;;;;;;;14.65;1.95;;;;;;;6.19;100.00;96345.56;5045710;28;20053;-71
2022/01/03 04:28:18;;;;;;;4.70;0.98;;;;;;;6.18;100.00;96349.25;5028401;28;20116;-72
2022/01/03 04:30:44;;;;;;;9.57;1.75;;;;;;;6.18;100.00;96343.94;5027256;28;20053;-73
2022/01/03 04:33:10;;;;;;;16.63;1.30;;;;;;;6.18;100.00;96338.63;5045731;28;20044;-71
2022/01/03 04:35:38;;;;;;;6.07;0.88;;;;;;;6.22;100.00;96336.31;5027231;28;20045;-71
2022/01/03 04:38:04;;;;;;;7.93;0.82;;;;;;;6.24;100.00;96336.94;5016842;28;20387;-73
2022/01/03 04:40:31;;;;;;;10.20;0.90;;;;;;;6.17;100.00;96331.69;5026977;28;20037;-72
2022/01/03 04:42:57;;;;;;;10.20;1.25;;;;;;;6.12;100.00;96335.03;5028906;28;20033;-71
2022/01/03 04:45:23;;;;;;;10.20;1.17;;;;;;;6.04;100.00;96332.66;5045586;28;20049;-72
2022/01/03 04:47:48;;;;;;;9.93;1.52;;;;;;;6.04;100.00;96342.47;5028526;28;20494;-73
2022/01/03 04:50:14;;;;;;;12.07;0.90;;;;;;;6.05;100.00;96349.41;5028996;28;20116;-72
2022/01/03 04:52:41;;;;;;;9.85;1.30;;;;;;;6.04;100.00;96347.78;5045407;28;20047;-71
2022/01/03 04:55:08;;;;;;;16.23;1.70;;;;;;;6.03;100.00;96349.63;5028419;28;20384;-70
2022/01/03 04:57:33;;;;;;;4.03;0.77;;;;;;;6.02;100.00;96341.91;5026010;28;20029;-71
2022/01/03 04:59:59;;;;;;;13.43;2.33;;;;;;;5.94;100.00;96343.00;5045879;28;20041;-71
2022/01/03 05:02:24;;;;;;;12.15;1.55;;;;;;;5.83;100.00;96339.19;5042701;28;20053;-71
2022/01/03 05:04:51;;;;;;;15.00;1.52;;;;;;;5.82;100.00;96334.91;5027546;28;20071;-73
2022/01/03 05:07:17;;;;;;;14.38;1.30;;;;;;;5.85;100.00;96331.03;5044420;28;20463;-70
2022/01/03 05:09:43;;;;;;;7.60;1.13;;;;;;;5.81;100.00;96327.19;5036522;28;20376;-71
2022/01/03 05:12:11;;;;;;;11.35;1.27;;;;;;;5.75;100.00;96334.19;5042162;28;20029;-71
2022/01/03 05:14:37;;;;;;;9.07;1.00;;;;;;;5.76;100.00;96338.47;5043829;28;20059;-71
2022/01/03 05:17:03;;;;;;;11.80;1.10;;;;;;;5.80;100.00;96331.69;5027182;28;20037;-72
2022/01/03 05:19:28;;;;;;;10.60;1.10;;;;;;;5.79;100.00;96318.63;5027797;28;20040;-71
2022/01/03 05:21:54;;;;;;;7.88;0.90;;;;;;;5.68;100.00;96314.88;5026436;28;20703;-73
2022/01/03 05:24:20;;;;;;;13.30;1.52;;;;;;;5.60;100.00;96325.75;5043460;28;20036;-71
2022/01/03 05:26:48;;;;;;;12.05;1.20;;;;;;;5.53;100.00;96325.84;5026015;28;20053;-71
2022/01/03 05:29:15;;;;;;;11.07;1.02;;;;;;;5.43;100.00;96316.75;5042822;28;20099;-70
2022/01/03 05:31:41;;;;;;;15.20;1.27;;;;;;;5.38;100.00;96313.97;5026112;28;20036;-70
2022/01/03 05:34:07;;;;;;;17.52;1.67;;;;;;;5.40;100.00;96310.06;5027561;28;20440;-70
2022/01/03 05:36:32;;;;;;;5.55;0.98;;;;;;;5.35;100.00;96317.84;5029058;28;20079;-72
2022/01/03 05:38:58;;;;;;;13.38;1.30;;;;;;;5.33;100.00;96325.22;5042222;28;20391;-72
2022/01/03 05:41:25;;;;;;;9.50;1.15;;;;;;;5.35;100.00;96322.34;5026060;28;20044;-71
2022/01/03 05:43:52;;;;;;;7.45;1.17;;;;;;;5.36;100.00;96311.50;5044778;28;20045;-71
2022/01/03 05:46:19;;;;;;;13.90;1.42;;;;;;;5.32;100.00;96318.28;5028057;28;20033;-71
2022/01/03 05:48:44;;;;;;;8.65;0.98;;;;;;;5.28;100.00;96323.22;5043882;28;20040;-71
2022/01/03 05:51:11;;;;;;;6.80;0.95;;;;;;;5.39;100.00;96331.50;5034651;28;20029;-70
2022/01/03 05:53:36;;;;;;;11.73;1.20;;;;;;;5.51;100.00;96335.84;5043858;28;20570;-70
2022/01/03 05:56:02;;;;;;;9.98;1.40;;;;;;;5.61;100.00;96326.59;5026396;28;20096;-70
2022/01/03 05:58:29;;;;;;;15.13;1.70;;;;;;;5.57;100.00;96335.00;5025820;28;20036;-71
2022/01/03 06:00:55;;;;;;;11.43;1.30;;;;;;;5.52;100.00;96339.31;5026422;28;20463;-70
2022/01/03 06:03:23;;;;;;;6.63;1.00;;;;;;;5.49;100.00;96335.28;5045251;28;20041;-73
2022/01/03 06:08:24;;;;;;;7.53;1.40;;;;;;;5.30;100.00;96330.97;5035558;28;20518;-70
2022/01/03 06:10:51;;;;;;;7.45;1.38;;;;;;;5.23;100.00;96328.38;5028986;28;20072;-71
2022/01/03 06:13:21;;;;;;;11.02;1.80;;;;;;;5.09;100.00;96324.22;5042328;28;20033;-72
2022/01/03 06:15:48;;;;;;;9.55;1.13;;;;;;;5.04;100.00;96329.34;5042549;28;20040;-70
2022/01/03 06:18:16;;;;;;;8.00;1.20;;;;;;;5.08;100.00;96327.91;5031205;28;20036;-70
2022/01/03 06:20:46;;;;;;;17.75;1.70;;;;;;;5.23;100.00;96309.00;5044335;28;20037;-71
2022/01/03 06:23:13;;;;;;;15.70;1.63;;;;;;;5.20;100.00;96310.22;5042053;28;20166;-70
2022/01/03 06:25:39;;;;;;;18.95;1.55;;;;;;;5.10;100.00;96307.25;5024061;28;20036;-71
2022/01/03 06:28:07;;;;;;;14.45;1.60;;;;;;;5.01;100.00;96297.97;5027237;28;20033;-70
2022/01/03 06:30:35;;;;;;;10.98;1.63;;;;;;;4.98;100.00;96306.34;5017403;28;20140;-70
2022/01/03 06:33:02;;;;;;;13.55;1.70;;;;;;;5.12;100.00;96302.53;5042059;28;20069;-72
2022/01/03 06:35:28;;;;;;;13.07;2.17;;;;;;;5.28;100.00;96309.13;5041725;28;20503;-70
2022/01/03 06:37:54;;;;;;;11.02;1.50;;;;;;;5.47;100.00;96302.03;5026437;28;20103;-71
2022/01/03 06:40:22;;;;;;;12.73;1.60;;;;;;;5.58;100.00;96307.41;5024463;28;20443;-71
2022/01/03 06:42:48;;;;;;;14.93;1.85;;;;;;;5.64;100.00;96303.06;5042333;28;20046;-72
2022/01/03 06:45:16;;;;;;;13.50;1.30;;;;;;;5.68;100.00;96303.41;5024303;28;20120;-71
2022/01/03 06:47:43;;;;;;;6.47;1.45;;;;;;;5.69;100.00;96297.09;5040289;28;20056;-73
2022/01/03 06:50:09;;;;;;;12.30;1.25;;;;;;;5.68;100.00;96298.13;5024036;28;20040;-71
2022/01/03 06:52:35;;;;;;;10.75;1.40;;;;;;;5.65;100.00;96301.22;5025092;28;20037;-72
2022/01/03 06:55:02;;;;;;;13.20;2.17;;;;;;;5.62;100.00;96305.13;5042137;28;20503;-72
2022/01/03 06:57:27;;;;;;;11.27;1.35;;;;;;;5.56;100.00;96304.16;5029749;28;20567;-73
2022/01/03 06:59:53;;;;;;;14.70;1.40;;;;;;;5.58;100.00;96299.44;5042750;28;20037;-71
2022/01/03 07:02:21;;;;;;;6.90;1.30;;;;;;;5.47;100.00;96300.19;5026164;28;20041;-71
2022/01/03 07:04:46;;;;;;;10.95;1.98;;;;;;;5.49;100.00;96297.31;5043740;28;20055;-73
2022/01/03 07:07:14;;;;;;;15.82;2.17;;;;;;;5.46;100.00;96298.56;5023971;28;20036;-71
2022/01/03 07:09:39;;;;;;;11.70;1.60;;;;;;;5.35;100.00;96296.63;5044654;28;20040;-72
2022/01/03 07:12:06;;;;;;;10.75;1.63;;;;;;;5.22;100.00;96291.47;5042061;28;20083;-71
2022/01/03 07:19:48;;;;;;;11.10;1.50;;;;;;;5.19;100.00;96311.25;5043104;28;20103;-71
2022/01/03 07:22:14;;;;;;;20.10;2.42;;;;;;;5.24;100.00;96306.13;5043088;28;20075;-72
2022/01/03 07:24:40;;;;;;;12.43;1.75;;;;;;;5.36;100.00;96308.84;5042557;28;20103;-71
2022/01/03 07:27:09;;;;;;;9.73;1.60;;;;;;;5.42;100.00;96304.53;5041496;28;20037;-70
2022/01/03 07:29:35;;;;;;;14.95;2.05;;;;;;;5.42;100.00;96301.88;5044102;28;20045;-71
2022/01/03 07:32:01;;;;;;;20.15;1.88;;;;;;;5.52;100.00;96312.78;5041710;28;20036;-70
2022/01/03 07:34:27;;;;;;;14.52;1.70;;;;;;;5.61;100.00;96305.38;5043602;28;20044;-70
2022/01/03 07:36:52;;;;;;;17.52;1.83;;;;;;;5.65;100.00;96307.34;5021742;28;20119;-73
2022/01/03 07:39:18;;;;;;;18.45;2.25;;;;;;;5.70;100.00;96304.03;5043156;28;20346;-71
2022/01/03 07:41:44;;;;;;;9.80;1.38;;;;;;;5.64;100.00;96308.38;5042466;28;20048;-71
2022/01/03 07:44:09;;;;;;;9.90;2.15;;;;;;;5.67;100.00;96305.28;5041498;28;20049;-71
2022/01/03 07:46:35;;;;;;;10.40;1.50;;;;;;;5.66;100.00;96306.31;5041882;28;20049;-72
2022/01/03 07:49:01;;;;;;;10.95;1.30;;;;;;;5.68;100.00;96295.47;5040065;28;20067;-72
2022/01/03 07:51:26;;;;;;;10.98;1.50;;;;;;;5.64;100.00;96304.91;5042644;28;20098;-71
2022/01/03 07:53:52;;;;;;;8.07;1.27;;;;;;;5.65;100.00;96286.09;5042397;28;20115;-70
2022/01/03 07:56:20;;;;;;;8.90;1.23;;;;;;;5.62;100.00;96286.56;5024756;28;20237;-70
2022/01/03 07:58:47;;;;;;;21.85;3.63;;;;;;;5.68;100.00;96295.47;5042669;28;20041;-70
2022/01/03 08:01:12;;;;;;;14.45;1.73;;;;;;;5.71;100.00;96303.00;5041972;28;20167;-71
2022/01/03 08:03:38;;;;;;;13.02;2.13;;;;;;;5.72;100.00;96301.97;5043477;28;20374;-72
2022/01/03 08:06:04;;;;;;;13.13;2.20;;;;;;;5.75;100.00;96315.59;5040444;28;20426;-71
2022/01/03 08:08:30;;;;;;;13.20;2.00;;;;;;;5.77;100.00;96308.25;5042873;28;20570;-71
2022/01/03 08:10:56;;;;;;;12.95;2.58;;;;;;;5.77;100.00;96310.09;5040825;28;20152;-70
2022/01/03 08:13:21;;;;;;;15.77;2.30;;;;;;;5.76;100.00;96314.59;5043413;28;20114;-70
2022/01/03 08:15:47;;;;;;;26.73;2.72;;;;;;;5.83;100.00;96309.97;5042412;28;20132;-71
2022/01/03 08:18:13;;;;;;;12.48;2.10;;;;;;;5.81;100.00;96306.75;5042837;28;20029;-70
2022/01/03 08:20:39;;;;;;;11.68;2.53;;;;;;;5.77;100.00;96304.78;5045245;28;20045;-71
2022/01/03 08:23:04;;;;;;;17.00;1.80;;;;;;;5.80;100.00;96297.16;5042182;28;20048;-70
2022/01/03 08:25:33;;;;;;;14.50;1.83;;;;;;;5.70;100.00;96294.22;5044220;28;20638;-71
2022/01/03 08:27:59;;;;;;;19.77;3.38;;;;;;;5.67;100.00;96302.63;5042643;28;20029;-71
2022/01/03 08:30:24;;;;;;;8.27;1.60;;;;;;;5.74;100.00;96306.00;5043260;28;20074;-70
2022/01/03 08:32:50;;;;;;;11.90;1.98;;;;;;;5.79;100.00;96300.84;5042913;28;20047;-71
2022/01/03 08:35:15;;;;;;;16.08;2.25;;;;;;;5.95;100.00;96296.00;5042907;28;20072;-70
2022/01/03 08:37:41;;;;;;;8.85;1.80;;;;;;;6.05;100.00;96299.75;5041571;28;20123;-70
2022/01/03 08:40:07;;;;;;;5.35;1.00;;;;;;;6.12;100.00;96297.00;5043302;28;20273;-71
2022/01/03 08:42:35;;;;;;;11.32;1.80;;;;;;;6.06;100.00;96306.69;5048186;28;20040;-71
2022/01/03 08:45:03;;;;;;;12.10;1.70;;;;;;;6.04;100.00;96311.41;5046192;28;20060;-71
2022/01/03 08:47:29;;;;;;;13.93;2.72;;;;;;;6.06;100.00;96303.22;5045942;28;20048;-71
2022/01/03 08:49:55;;;;;;;14.05;2.53;;;;;;;6.02;100.00;96307.38;5046226;28;20064;-71
2022/01/03 08:52:20;;;;;;;11.68;1.52;;;;;;;5.96;100.00;96302.94;5046122;28;20468;-71
2022/01/03 08:54:46;;;;;;;21.25;2.90;;;;;;;5.94;100.00;96295.19;5047421;28;20227;-72
2022/01/03 08:57:11;;;;;;;4.75;1.02;;;;;;;5.90;100.00;96301.94;5045221;28;20041;-72
2022/01/03 08:59:37;;;;;;;8.50;2.13;;;;;;;5.96;100.00;96285.16;5046722;28;20037;-71
2022/01/03 09:02:02;;;;;;;14.32;1.90;;;;;;;6.14;100.00;96282.47;5045168;28;20041;-73
2022/01/03 09:04:28;;;;;;;21.38;2.85;;;;;;;6.20;100.00;96291.38;5046266;28;20037;-71
2022/01/03 09:06:53;;;;;;;14.65;1.83;;;;;;;6.26;100.00;96282.53;5044324;28;20033;-71
2022/01/03 09:09:19;;;;;;;16.45;2.22;;;;;;;6.13;100.00;96294.13;5028027;28;20369;-71
2022/01/03 09:11:45;;;;;;;8.05;1.92;;;;;;;6.07;100.00;96291.56;5045294;28;20029;-70
2022/01/03 09:14:11;;;;;;;16.27;2.67;;;;;;;6.16;100.00;96300.84;5044473;28;20052;-71
2022/01/03 09:16:37;;;;;;;15.52;2.30;;;;;;;6.33;100.00;96293.88;5045402;28;20033;-71
2022/01/03 09:19:03;;;;;;;8.23;1.77;;;;;;;6.49;100.00;96296.94;5045990;28;20035;-71
2022/01/03 09:21:29;;;;;;;16.23;3.10;;;;;;;6.50;100.00;96303.88;5045023;28;20614;-71
2022/01/03 09:24:19;;;;;;;11.95;1.95;;;;;;;6.43;100.00;96293.31;5046577;28;20044;-71
2022/01/03 09:29:24;;;;;;;24.45;4.10;;;;;;;6.47;100.00;96293.69;5047025;28;20048;-71
2022/01/03 09:31:49;;;;;;;29.17;2.58;;;;;;;6.55;100.00;96298.69;5045578;28;20400;-71
2022/01/03 09:34:15;;;;;;;19.73;3.78;;;;;;;6.57;100.00;96299.28;5045766;28;20201;-71
2022/01/03 09:36:40;;;;;;;14.48;3.22;;;;;;;6.48;100.00;96288.16;5045961;28;20597;-71
2022/01/03 09:39:06;;;;;;;22.10;2.78;;;;;;;6.47;100.00;96296.34;5045631;28;20053;-71
2022/01/03 09:41:33;;;;;;;21.02;2.58;;;;;;;6.73;100.00;96290.63;5047150;28;20044;-73
2022/01/03 09:44:03;;;;;;;18.95;2.42;;;;;;;6.96;100.00;96297.84;5045894;28;20061;-71
2022/01/03 09:46:35;;;;;;;14.50;2.50;;;;;;;6.99;100.00;96286.75;5019994;28;20035;-71
2022/01/03 09:49:02;;;;;;;18.55;2.80;;;;;;;6.87;100.00;96285.94;5026776;28;20523;-71
2022/01/03 09:51:30;;;;;;;8.88;1.92;;;;;;;6.83;100.00;96290.06;5027104;28;20378;-71
2022/01/03 09:54:08;;;;;;;12.63;2.03;;;;;;;6.80;100.00;96285.22;5030194;28;20044;-71
2022/01/03 09:56:36;;;;;;;21.13;2.17;;;;;;;6.84;100.00;96289.03;5050262;28;20082;-72
2022/01/03 09:59:05;;;;;;;11.95;2.13;;;;;;;6.62;100.00;96292.25;5032460;28;20068;-71
2022/01/03 10:01:32;;;;;;;23.00;2.38;;;;;;;6.70;100.00;96294.56;5046030;28;20084;-71
2022/01/03 10:03:58;;;;;;;11.85;1.65;;;;;;;6.83;100.00;96288.22;5056050;28;20051;-70
2022/01/03 10:06:25;;;;;;;26.92;3.17;;;;;;;6.80;100.00;96291.34;5043801;28;20051;-71
2022/01/03 10:08:52;;;;;;;15.95;3.40;;;;;;;6.79;100.00;96284.41;5046170;28;20459;-71
2022/01/03 10:11:19;;;;;;;17.45;2.83;;;;;;;6.90;100.00;96278.28;5043878;28;20104;-71
2022/01/03 10:13:48;;;;;;;20.17;3.17;;;;;;;7.05;100.00;96279.69;5045857;28;20114;-71
2022/01/03 10:16:14;;;;;;;15.88;1.90;;;;;;;7.96;100.00;96276.38;5045144;28;20182;-71
2022/01/03 10:18:40;;;;;;;18.73;1.92;;;;;;;8.16;100.00;96269.81;5043389;28;20457;-72
2022/01/03 10:21:07;;;;;;;20.98;2.03;;;;;;;8.06;100.00;96265.91;5045090;28;20032;-71
2022/01/03 10:23:33;;;;;;;21.98;3.30;;;;;;;8.97;100.00;96260.63;5044727;28;20056;-71
2022/01/03 10:26:22;;;;;;;17.05;2.55;;;;;;;9.72;100.00;96254.75;5040828;28;20468;-71
2022/01/03 10:28:48;;;;;;;17.88;2.10;;;;;;;10.35;100.00;96251.75;5045077;28;20452;-72
2022/01/03 10:31:21;;;;;;;14.43;2.15;;;;;;;11.02;100.00;96245.97;5042368;28;20041;-73
2022/01/03 10:34:03;;;;;;;17.20;2.60;;;;;;;10.70;100.00;96248.63;5044791;28;20041;-72
2022/01/03 10:36:30;;;;;;;18.88;2.80;;;;;;;9.76;100.00;96250.53;5046674;28;20025;-71
2022/01/03 10:38:58;;;;;;;28.80;2.45;;;;;;;9.70;100.00;96258.72;5045101;28;20029;-71
2022/01/03 10:41:25;;;;;;;16.75;2.88;;;;;;;10.10;100.00;96247.72;5026601;28;20132;-71
2022/01/03 10:43:54;;;;;;;11.27;1.65;;;;;;;10.08;100.00;96241.81;5045104;28;20391;-72
2022/01/03 10:46:19;;;;;;;15.98;2.40;;;;;;;10.19;100.00;96237.38;5045396;28;20040;-73
2022/01/03 10:48:45;;;;;;;13.05;1.80;;;;;;;10.15;100.00;96236.28;5042919;28;20033;-71
2022/01/03 10:51:11;;;;;;;8.80;1.58;;;;;;;10.30;100.00;96229.28;5043767;28;20559;-71
2022/01/03 10:53:40;;;;;;;10.85;1.58;;;;;;;9.34;100.00;96228.03;5043257;28;20119;-72
2022/01/03 10:56:23;;;;;;;10.07;1.83;;;;;;;8.62;100.00;96232.28;5042396;28;20090;-71
2022/01/03 10:58:50;;;;;;;18.77;2.58;;;;;;;8.28;100.00;96228.75;5043561;28;20075;-71
2022/01/03 11:01:23;;;;;;;10.05;1.80;;;;;;;8.06;100.00;96228.59;5042991;28;20056;-73
2022/01/03 11:03:51;;;;;;;5.10;1.10;;;;;;;7.87;100.00;96208.53;5044505;28;20056;-72
2022/01/03 11:06:48;;;;;;;10.18;1.70;;;;;;;7.69;100.00;96209.50;5043531;28;20068;-71
2022/01/03 11:11:55;;;;;;;10.73;2.03;;;;;;;7.53;100.00;96219.03;5042960;28;20182;-71
2022/01/03 11:14:33;;;;;;;7.70;1.52;;;;;;;7.33;100.00;96223.94;5044520;28;20043;-72
2022/01/03 11:17:01;;;;;;;12.95;1.70;;;;;;;7.07;100.00;96211.91;5044443;28;20041;-71
2022/01/03 11:19:40;;;;;;;20.45;2.33;;;;;;;7.10;100.00;96223.94;5045536;28;20101;-73
2022/01/03 11:22:06;;;;;;;10.45;1.25;;;;;;;6.85;100.00;96222.34;5045048;28;20071;-71
2022/01/03 11:24:31;;;;;;;14.20;2.05;;;;;;;6.55;100.00;96226.91;5044243;28;20072;-71
2022/01/03 11:26:57;;;;;;;3.28;0.63;;;;;;;6.58;100.00;96275.13;5043604;28;20037;-72
2022/01/03 11:29:27;;;;;;;5.30;0.85;;;;;;;6.05;100.00;96246.63;5042469;28;20090;-71
2022/01/03 11:31:54;;;;;;;2.15;0.40;;;;;;;5.67;100.00;96217.66;5039679;28;20033;-72
2022/01/03 11:34:24;;;;;;;13.10;1.20;;;;;;;5.56;100.00;96221.06;5041791;28;20064;-71
2022/01/03 11:36:50;;;;;;;3.95;0.50;;;;;;;5.62;100.00;96230.81;5044353;28;20083;-71
2022/01/03 11:39:20;;;;;;;5.80;1.13;;;;;;;5.45;100.00;96209.38;5042134;28;20028;-72
2022/01/03 11:41:46;;;;;;;6.90;1.20;;;;;;;5.43;100.00;96234.47;5033888;28;20136;-71
2022/01/03 11:44:15;;;;;;;2.13;0.90;;;;;;;5.41;100.00;96212.66;5042824;28;20452;-71
2022/01/03 11:46:42;;;;;;;3.38;0.68;;;;;;;5.38;100.00;96194.56;5043521;28;20040;-71